createdAt,value
2023-02-18T00:01:30.559Z,90.42
2023-02-18T00:03:58.733Z,90.74
2023-02-18T00:06:36.132Z,90.89
2023-02-18T00:09:04.227Z,90.58
2023-02-18T00:11:32.533Z,90.49
2023-02-18T00:14:01.383Z,90.60
2023-02-18T00:16:29.435Z,90.57
2023-02-18T00:18:57.402Z,90.84
2023-02-18T00:21:23.824Z,90.79
2023-02-18T00:23:50.629Z,90.73
2023-02-18T00:26:18.526Z,91.09
2023-02-18T00:28:45.755Z,90.91
2023-02-18T00:31:21.897Z,90.90
2023-02-18T00:33:48.575Z,91.28
2023-02-18T00:36:17.656Z,91.19
2023-02-18T00:38:45.800Z,91.18
2023-02-18T00:41:12.256Z,91.12
2023-02-18T00:43:38.623Z,90.97
2023-02-18T00:46:05.177Z,91.39
2023-02-18T00:48:32.504Z,91.33
2023-02-18T00:51:00.694Z,91.58
2023-02-18T00:53:28.687Z,91.55
2023-02-18T00:55:55.113Z,91.54
2023-02-18T00:58:21.794Z,91.86
2023-02-18T01:00:48.600Z,91.55
2023-02-18T01:03:15.495Z,91.35
2023-02-18T01:05:42.267Z,91.80
2023-02-18T01:08:09.988Z,91.44
2023-02-18T01:10:40.383Z,91.43
2023-02-18T01:13:06.822Z,91.61
2023-02-18T01:15:33.589Z,91.84
2023-02-18T01:17:59.992Z,91.57
2023-02-18T01:20:26.566Z,91.52
2023-02-18T01:22:52.893Z,91.92
2023-02-18T01:25:19.273Z,91.63
2023-02-18T01:27:45.606Z,91.39
2023-02-18T01:30:15.287Z,91.52
2023-02-18T01:32:41.698Z,90.93
2023-02-18T01:35:08.360Z,91.02
2023-02-18T01:37:34.744Z,90.73
2023-02-18T01:40:01.264Z,90.90
2023-02-18T01:42:29.518Z,91.51
2023-02-18T01:45:42.192Z,91.22
2023-02-18T01:48:15.004Z,91.00
2023-02-18T01:50:49.113Z,91.03
2023-02-18T01:53:21.710Z,91.30
2023-02-18T01:55:49.273Z,91.27
2023-02-18T01:58:16.327Z,91.42
2023-02-18T02:00:42.773Z,91.35
2023-02-18T02:03:09.318Z,91.22
2023-02-18T02:05:35.867Z,90.93
2023-02-18T02:08:03.016Z,91.48
2023-02-18T02:10:43.224Z,91.53
2023-02-18T02:13:25.305Z,92.33
2023-02-18T02:16:18.822Z,92.50
2023-02-18T02:19:26.076Z,92.65
2023-02-18T02:22:20.433Z,92.94
2023-02-18T02:25:02.572Z,93.20
2023-02-18T02:27:56.129Z,93.58
2023-02-18T02:30:28.158Z,93.66
2023-02-18T02:33:13.880Z,93.96
2023-02-18T02:36:03.144Z,94.61
2023-02-18T02:38:36.037Z,95.20
2023-02-18T02:41:14.938Z,95.54
2023-02-18T02:43:50.361Z,96.20
2023-02-18T02:46:28.513Z,96.90
2023-02-18T02:49:06.511Z,97.47
2023-02-18T02:51:34.822Z,97.61
2023-02-18T02:54:20.959Z,97.75
2023-02-18T02:56:47.949Z,97.68
2023-02-18T02:59:18.440Z,97.66
2023-02-18T03:02:18.849Z,97.69
2023-02-18T03:04:56.760Z,97.74
2023-02-18T03:07:55.206Z,97.45
2023-02-18T03:10:49.418Z,97.69
2023-02-18T03:13:26.086Z,97.72
2023-02-18T03:15:59.768Z,97.55
2023-02-18T03:18:41.514Z,97.69
2023-02-18T03:21:21.955Z,97.60
2023-02-18T03:23:57.468Z,97.61
2023-02-18T03:26:26.242Z,97.41
2023-02-18T03:28:56.515Z,97.47
2023-02-18T03:31:27.414Z,98.13
2023-02-18T03:34:07.852Z,98.32
2023-02-18T03:36:35.160Z,98.12
2023-02-18T03:39:07.248Z,97.85
2023-02-18T03:41:34.241Z,98.41
2023-02-18T03:44:06.709Z,98.55
2023-02-18T03:46:35.542Z,98.72
2023-02-18T03:49:02.013Z,99.26
2023-02-18T03:51:28.485Z,99.62
2023-02-18T03:53:55.000Z,100.00
2023-02-18T03:56:21.570Z,100.00
2023-02-18T03:58:47.978Z,100.00
2023-02-18T04:01:14.667Z,100.00
2023-02-18T04:03:41.069Z,100.00
2023-02-18T04:06:08.053Z,100.00
2023-02-18T04:08:35.737Z,100.00
2023-02-18T04:11:02.193Z,100.00
2023-02-18T04:13:28.757Z,100.00
2023-02-18T04:15:55.165Z,100.00
2023-02-18T04:18:22.030Z,100.00
2023-02-18T04:20:48.933Z,100.00
2023-02-18T04:23:15.440Z,100.00
2023-02-18T04:25:41.854Z,100.00
2023-02-18T04:28:11.177Z,100.00
2023-02-18T04:30:37.645Z,100.00
2023-02-18T04:33:04.144Z,100.00
2023-02-18T04:35:30.487Z,100.00
2023-02-18T04:37:56.845Z,100.00
2023-02-18T04:40:25.288Z,100.00
2023-02-18T04:42:51.684Z,100.00
2023-02-18T04:45:18.089Z,100.00
2023-02-18T04:47:44.589Z,100.00
2023-02-18T04:50:11.183Z,100.00
2023-02-18T04:52:37.721Z,100.00
2023-02-18T04:55:04.405Z,100.00
2023-02-18T04:57:31.041Z,100.00
2023-02-18T04:59:57.484Z,100.00
2023-02-18T05:02:23.933Z,100.00
2023-02-18T05:04:50.294Z,100.00
2023-02-18T05:07:16.640Z,100.00
2023-02-18T05:09:43.079Z,100.00
2023-02-18T05:12:09.516Z,100.00
2023-02-18T05:14:35.956Z,100.00
2023-02-18T05:17:02.420Z,100.00
2023-02-18T05:19:28.877Z,100.00
2023-02-18T05:21:55.248Z,100.00
2023-02-18T05:24:21.748Z,100.00
2023-02-18T05:26:48.115Z,100.00
2023-02-18T05:29:14.472Z,100.00
2023-02-18T05:31:41.018Z,100.00
2023-02-18T05:34:07.546Z,100.00
2023-02-18T05:36:34.019Z,100.00
2023-02-18T05:39:00.397Z,100.00
2023-02-18T05:41:26.806Z,100.00
2023-02-18T05:44:11.675Z,100.00
2023-02-18T05:46:38.116Z,100.00
2023-02-18T05:49:04.860Z,100.00
2023-02-18T05:51:31.277Z,100.00
2023-02-18T05:53:57.667Z,100.00
2023-02-18T05:56:24.031Z,100.00
2023-02-18T05:58:50.435Z,100.00
2023-02-18T06:01:16.977Z,100.00
2023-02-18T06:03:43.368Z,100.00
2023-02-18T06:06:10.095Z,100.00
2023-02-18T06:08:36.798Z,100.00
2023-02-18T06:11:03.604Z,100.00
2023-02-18T06:13:30.326Z,100.00
2023-02-18T06:15:56.759Z,100.00
2023-02-18T06:18:23.225Z,100.00
2023-02-18T06:20:49.886Z,100.00
2023-02-18T06:23:16.600Z,100.00
2023-02-18T06:25:43.266Z,100.00
2023-02-18T06:28:09.632Z,100.00
2023-02-18T06:30:36.034Z,100.00
2023-02-18T06:33:05.273Z,100.00
2023-02-18T06:35:32.092Z,100.00
2023-02-18T06:37:58.462Z,100.00
2023-02-18T06:40:24.955Z,100.00
2023-02-18T06:42:51.340Z,100.00
2023-02-18T06:45:17.930Z,99.86
2023-02-18T06:47:44.404Z,98.57
2023-02-18T06:50:10.936Z,99.03
2023-02-18T06:52:38.068Z,98.56
2023-02-18T06:55:05.793Z,97.70
2023-02-18T06:57:32.279Z,97.56
2023-02-18T06:59:58.703Z,97.94
2023-02-18T07:02:25.255Z,97.55
2023-02-18T07:04:51.588Z,97.70
2023-02-18T07:07:18.099Z,97.20
2023-02-18T07:09:44.494Z,96.17
2023-02-18T07:12:10.869Z,96.46
2023-02-18T07:14:37.262Z,97.01
2023-02-18T07:17:03.803Z,95.16
2023-02-18T07:19:30.167Z,94.59
2023-02-18T07:21:57.740Z,94.59
2023-02-18T07:24:24.628Z,94.40
2023-02-18T07:26:50.966Z,94.42
2023-02-18T07:29:17.434Z,94.39
2023-02-18T07:31:43.874Z,93.47
2023-02-18T07:34:10.311Z,93.17
2023-02-18T07:36:36.677Z,93.33
2023-02-18T07:39:03.099Z,92.73
2023-02-18T07:41:29.549Z,92.62
2023-02-18T07:43:55.921Z,93.86
2023-02-18T07:46:22.544Z,93.54
2023-02-18T07:48:48.911Z,93.25
2023-02-18T07:51:15.275Z,92.81
2023-02-18T07:53:42.348Z,93.35
2023-02-18T07:56:09.140Z,93.28
2023-02-18T07:58:37.993Z,92.59
2023-02-18T08:01:06.341Z,92.22
2023-02-18T08:03:33.108Z,91.64
2023-02-18T08:05:59.515Z,92.37
2023-02-18T08:08:29.402Z,92.22
2023-02-18T08:11:01.024Z,92.93
2023-02-18T08:13:30.564Z,93.29
2023-02-18T08:15:57.376Z,94.48
2023-02-18T08:18:25.137Z,95.21
2023-02-18T08:20:54.278Z,95.41
2023-02-18T08:23:22.249Z,95.03
2023-02-18T08:25:51.366Z,95.14
2023-02-18T08:28:19.424Z,95.19
2023-02-18T08:30:50.684Z,95.18
2023-02-18T08:33:17.746Z,93.79
2023-02-18T08:35:44.926Z,94.74
2023-02-18T08:38:11.539Z,93.66
2023-02-18T08:40:38.029Z,93.75
2023-02-18T08:43:04.378Z,93.73
2023-02-18T08:45:30.754Z,92.76
2023-02-18T08:48:17.522Z,93.69
2023-02-18T08:50:43.620Z,92.58
2023-02-18T08:53:10.113Z,92.85
2023-02-18T08:55:38.074Z,93.51
2023-02-18T08:58:05.603Z,93.10
2023-02-18T09:00:32.591Z,92.50
2023-02-18T09:02:59.049Z,91.24
2023-02-18T09:05:26.513Z,91.32
2023-02-18T09:07:52.881Z,90.79
2023-02-18T09:10:19.296Z,91.15
2023-02-18T09:12:45.739Z,89.91
2023-02-18T09:15:12.158Z,89.42
2023-02-18T09:17:38.564Z,88.72
2023-02-18T09:20:05.692Z,88.45
2023-02-18T09:22:32.778Z,87.67
2023-02-18T09:24:59.430Z,87.80
2023-02-18T09:27:25.963Z,86.69
2023-02-18T09:29:52.419Z,87.06
2023-02-18T09:32:32.600Z,86.84
2023-02-18T09:35:00.689Z,87.50
2023-02-18T09:37:27.107Z,86.76
2023-02-18T09:39:53.830Z,86.37
2023-02-18T09:42:28.064Z,86.35
2023-02-18T09:44:58.119Z,86.42
2023-02-18T09:47:30.417Z,87.22
2023-02-18T09:50:27.508Z,86.51
2023-02-18T09:52:54.172Z,86.23
2023-02-18T09:55:25.047Z,86.08
2023-02-18T09:57:54.006Z,86.75
2023-02-18T10:00:30.516Z,85.59
2023-02-18T10:03:06.154Z,85.08
2023-02-18T10:05:34.964Z,86.09
2023-02-18T10:08:05.786Z,85.92
2023-02-18T10:10:42.062Z,84.77
2023-02-18T10:13:17.576Z,85.09
2023-02-18T10:15:45.415Z,84.65
2023-02-18T10:18:52.070Z,85.82
2023-02-18T10:21:24.210Z,86.25
2023-02-18T10:23:57.154Z,86.69
2023-02-18T10:26:23.607Z,85.61
2023-02-18T10:28:50.040Z,85.44
2023-02-18T10:31:25.576Z,85.13
2023-02-18T10:34:07.083Z,84.61
2023-02-18T10:36:54.286Z,85.16
2023-02-18T10:39:39.891Z,86.46
2023-02-18T10:42:25.014Z,88.08
2023-02-18T10:45:33.593Z,89.83
2023-02-18T10:48:14.889Z,91.63
2023-02-18T10:50:44.168Z,90.94
2023-02-18T10:53:35.919Z,92.15
2023-02-18T10:56:02.984Z,92.40
2023-02-18T10:58:34.115Z,92.45
2023-02-18T11:01:05.055Z,91.99
2023-02-18T11:03:45.112Z,93.22
2023-02-18T11:06:32.389Z,93.54
2023-02-18T11:09:00.344Z,94.04
2023-02-18T11:11:33.432Z,95.00
2023-02-18T11:14:02.678Z,95.15
2023-02-18T11:16:38.917Z,95.49
2023-02-18T11:19:05.895Z,96.48
2023-02-18T11:21:37.137Z,97.21
2023-02-18T11:24:13.963Z,97.59
2023-02-18T11:26:40.815Z,97.79
2023-02-18T11:29:13.152Z,97.56
2023-02-18T11:31:43.309Z,98.16
2023-02-18T11:34:22.359Z,98.16
2023-02-18T11:36:50.239Z,98.68
2023-02-18T11:39:29.371Z,98.78
2023-02-18T11:42:03.647Z,98.76
2023-02-18T11:44:32.693Z,98.57
2023-02-18T11:47:20.034Z,98.45
2023-02-18T11:50:13.833Z,98.24
2023-02-18T11:52:45.650Z,98.50
2023-02-18T11:55:20.606Z,99.15
2023-02-18T11:57:54.587Z,98.99
2023-02-18T12:00:46.128Z,98.87
2023-02-18T12:03:32.520Z,99.41
2023-02-18T12:06:03.379Z,99.27
2023-02-18T12:08:35.460Z,99.80
2023-02-18T12:11:07.287Z,100.00
2023-02-18T12:13:36.581Z,99.80
2023-02-18T12:16:22.069Z,99.54
2023-02-18T12:19:34.687Z,99.59
2023-02-18T12:22:20.656Z,100.00
2023-02-18T12:25:02.164Z,100.00
2023-02-18T12:27:50.386Z,100.00
2023-02-18T12:30:35.706Z,100.00
2023-02-18T12:33:04.948Z,100.00
2023-02-18T12:35:39.198Z,100.00
2023-02-18T12:38:38.425Z,100.00
2023-02-18T12:41:22.860Z,100.00
2023-02-18T12:44:17.166Z,100.00
2023-02-18T12:46:59.750Z,100.00
2023-02-18T12:49:56.977Z,100.00
2023-02-18T12:52:49.649Z,100.00
2023-02-18T12:55:33.813Z,100.00
2023-02-18T12:58:05.924Z,100.00
2023-02-18T13:00:39.787Z,100.00
2023-02-18T13:03:25.024Z,100.00
2023-02-18T13:05:54.456Z,100.00
2023-02-18T13:09:07.264Z,100.00
2023-02-18T13:11:51.711Z,100.00
2023-02-18T13:14:24.437Z,100.00
2023-02-18T13:16:57.447Z,100.00
2023-02-18T13:19:34.043Z,100.00
2023-02-18T13:22:04.164Z,100.00
2023-02-18T13:24:36.275Z,100.00
2023-02-18T13:27:24.587Z,100.00
2023-02-18T13:30:09.003Z,100.00
2023-02-18T13:32:54.000Z,100.00
2023-02-18T13:35:32.512Z,100.00
2023-02-18T13:38:17.831Z,100.00
2023-02-18T13:40:44.744Z,100.00
2023-02-18T13:43:19.073Z,100.00
2023-02-18T13:46:04.147Z,100.00
2023-02-18T13:48:31.010Z,100.00
2023-02-18T13:51:04.008Z,100.00
2023-02-18T13:53:35.937Z,100.00
2023-02-18T13:56:08.504Z,100.00
2023-02-18T13:58:42.841Z,100.00
2023-02-18T14:01:12.010Z,100.00
2023-02-18T14:03:45.001Z,100.00
2023-02-18T14:06:17.562Z,100.00
2023-02-18T14:08:44.900Z,100.00
2023-02-18T14:11:11.245Z,100.00
2023-02-18T14:13:55.968Z,100.00
2023-02-18T14:16:22.524Z,100.00
2023-02-18T14:19:00.859Z,100.00
2023-02-18T14:21:39.157Z,100.00
2023-02-18T14:24:09.312Z,100.00
2023-02-18T14:26:49.417Z,100.00
2023-02-18T14:29:34.213Z,100.00
2023-02-18T14:32:04.788Z,100.00
2023-02-18T14:34:57.739Z,100.00
2023-02-18T14:37:53.202Z,100.00
2023-02-18T14:40:49.526Z,100.00
2023-02-18T14:43:28.649Z,100.00
2023-02-18T14:46:38.513Z,100.00
2023-02-18T14:49:46.705Z,100.00
2023-02-18T14:52:23.524Z,100.00
2023-02-18T14:54:50.104Z,100.00
2023-02-18T14:57:18.709Z,100.00
2023-02-18T14:59:47.516Z,100.00
2023-02-18T15:02:21.494Z,100.00
2023-02-18T15:04:50.435Z,100.00
2023-02-18T15:07:20.350Z,100.00
2023-02-18T15:09:53.862Z,100.00
2023-02-18T15:12:25.647Z,100.00
2023-02-18T15:14:54.338Z,100.00
2023-02-18T15:17:23.784Z,100.00
2023-02-18T15:19:58.495Z,100.00
2023-02-18T15:22:26.991Z,100.00
2023-02-18T15:24:55.730Z,100.00
2023-02-18T15:27:34.868Z,100.00
2023-02-18T15:30:03.949Z,100.00
2023-02-18T15:32:32.244Z,100.00
2023-02-18T15:35:01.809Z,100.00
2023-02-18T15:37:29.957Z,100.00
2023-02-18T15:39:56.903Z,100.00
2023-02-18T15:42:33.487Z,100.00
2023-02-18T15:45:15.847Z,100.00
2023-02-18T15:47:48.794Z,100.00
2023-02-18T15:50:25.072Z,100.00
2023-02-18T15:52:53.126Z,100.00
2023-02-18T15:55:31.273Z,100.00
2023-02-18T15:58:01.681Z,100.00
2023-02-18T16:00:41.476Z,100.00
2023-02-18T16:03:20.356Z,100.00
2023-02-18T16:05:46.871Z,100.00
2023-02-18T16:08:24.594Z,100.00
2023-02-18T16:11:07.166Z,100.00
2023-02-18T16:13:37.103Z,100.00
2023-02-18T16:16:03.794Z,99.78
2023-02-18T16:18:41.373Z,99.94
2023-02-18T16:21:19.853Z,99.74
2023-02-18T16:23:57.707Z,99.70
2023-02-18T16:26:29.878Z,99.08
2023-02-18T16:29:14.437Z,99.32
2023-02-18T16:31:41.830Z,98.98
2023-02-18T16:34:08.793Z,99.10
2023-02-18T16:36:35.288Z,99.22
2023-02-18T16:39:01.985Z,98.93
2023-02-18T16:41:29.034Z,99.16
2023-02-18T16:43:55.412Z,98.85
2023-02-18T16:46:24.197Z,99.05
2023-02-18T16:48:52.733Z,98.64
2023-02-18T16:51:25.765Z,98.90
2023-02-18T16:53:52.257Z,98.40
2023-02-18T16:56:24.582Z,98.40
2023-02-18T16:58:51.620Z,98.45
2023-02-18T17:01:31.086Z,98.67
2023-02-18T17:03:58.844Z,98.38
2023-02-18T17:06:25.495Z,98.24
2023-02-18T17:08:51.904Z,98.44
2023-02-18T17:11:25.850Z,98.91
2023-02-18T17:13:54.142Z,98.90
2023-02-18T17:16:21.837Z,98.87
2023-02-18T17:18:48.687Z,98.70
2023-02-18T17:21:20.918Z,98.62
2023-02-18T17:23:48.196Z,98.28
2023-02-18T17:26:19.755Z,97.96
2023-02-18T17:28:46.699Z,98.34
2023-02-18T17:31:19.026Z,98.90
2023-02-18T17:33:46.475Z,98.34
2023-02-18T17:36:13.158Z,98.15
2023-02-18T17:38:40.401Z,98.19
2023-02-18T17:41:07.497Z,98.10
2023-02-18T17:43:34.481Z,98.00
2023-02-18T17:46:01.296Z,97.91
2023-02-18T17:48:28.421Z,98.02
2023-02-18T17:50:55.044Z,98.54
2023-02-18T17:53:21.990Z,98.75
2023-02-18T17:55:49.662Z,99.38
2023-02-18T17:58:16.869Z,100.00
2023-02-18T18:00:55.104Z,100.00
2023-02-18T18:03:22.499Z,100.00
2023-02-18T18:05:52.018Z,100.00
2023-02-18T18:08:18.765Z,100.00
2023-02-18T18:10:50.415Z,100.00
2023-02-18T18:13:23.464Z,100.00
2023-02-18T18:15:50.422Z,100.00
2023-02-18T18:18:18.431Z,100.00
2023-02-18T18:20:48.792Z,100.00
2023-02-18T18:23:16.975Z,100.00
2023-02-18T18:25:46.171Z,100.00
2023-02-18T18:28:12.612Z,100.00
2023-02-18T18:30:46.453Z,100.00
2023-02-18T18:33:29.488Z,100.00
2023-02-18T18:35:57.519Z,100.00
2023-02-18T18:38:25.874Z,100.00
2023-02-18T18:40:53.384Z,100.00
2023-02-18T18:43:23.106Z,100.00
2023-02-18T18:45:50.976Z,100.00
2023-02-18T18:48:20.012Z,100.00
2023-02-18T18:50:47.356Z,100.00
2023-02-18T18:53:26.080Z,100.00
2023-02-18T18:55:55.785Z,100.00
2023-02-18T18:58:24.412Z,100.00
2023-02-18T19:01:03.648Z,100.00
2023-02-18T19:03:31.221Z,100.00
2023-02-18T19:05:57.927Z,100.00
2023-02-18T19:08:24.362Z,100.00
2023-02-18T19:10:53.718Z,100.00
2023-02-18T19:13:23.500Z,100.00
2023-02-18T19:15:51.497Z,100.00
2023-02-18T19:18:20.410Z,100.00
2023-02-18T19:20:47.749Z,100.00
2023-02-18T19:23:14.491Z,100.00
2023-02-18T19:25:41.077Z,100.00
2023-02-18T19:28:08.526Z,100.00
2023-02-18T19:30:36.882Z,100.00
2023-02-18T19:33:05.916Z,100.00
2023-02-18T19:35:32.838Z,100.00
2023-02-18T19:38:00.089Z,100.00
2023-02-18T19:40:29.602Z,100.00
2023-02-18T19:42:56.845Z,100.00
2023-02-18T19:45:23.232Z,100.00
2023-02-18T19:47:54.398Z,100.00
2023-02-18T19:50:21.198Z,100.00
2023-02-18T19:52:47.835Z,100.00
2023-02-18T19:55:14.182Z,100.00
2023-02-18T19:57:40.691Z,100.00
2023-02-18T20:00:09.149Z,100.00
2023-02-18T20:02:36.094Z,100.00
2023-02-18T20:05:02.678Z,100.00
2023-02-18T20:07:29.706Z,100.00
2023-02-18T20:09:56.074Z,100.00
2023-02-18T20:12:22.751Z,100.00
2023-02-18T20:14:50.924Z,99.89
2023-02-18T20:17:18.318Z,100.00
2023-02-18T20:19:44.742Z,100.00
2023-02-18T20:22:11.174Z,100.00
2023-02-18T20:24:39.505Z,99.85
2023-02-18T20:27:06.794Z,99.86
2023-02-18T20:29:33.565Z,100.00
2023-02-18T20:32:00.591Z,100.00
2023-02-18T20:34:27.490Z,99.99
2023-02-18T20:36:54.016Z,99.96
2023-02-18T20:39:20.983Z,99.80
2023-02-18T20:41:48.591Z,99.94
2023-02-18T20:44:15.828Z,99.59
2023-02-18T20:46:42.494Z,99.69
2023-02-18T20:49:12.963Z,100.00
2023-02-18T20:51:39.388Z,100.00
2023-02-18T20:54:09.724Z,100.00
2023-02-18T20:56:37.056Z,100.00
2023-02-18T20:59:04.368Z,100.00
2023-02-18T21:01:31.115Z,99.94
2023-02-18T21:03:57.566Z,100.00
2023-02-18T21:06:25.336Z,100.00
2023-02-18T21:08:53.293Z,100.00
2023-02-18T21:11:22.165Z,100.00
2023-02-18T21:13:50.463Z,100.00
2023-02-18T21:16:18.823Z,100.00
2023-02-18T21:18:45.736Z,100.00
2023-02-18T21:21:12.854Z,100.00
2023-02-18T21:23:40.168Z,100.00
2023-02-18T21:26:12.292Z,100.00
2023-02-18T21:28:39.421Z,100.00
2023-02-18T21:31:15.431Z,100.00
2023-02-18T21:33:41.801Z,100.00
2023-02-18T21:36:08.523Z,100.00
2023-02-18T21:38:34.946Z,100.00
2023-02-18T21:41:04.458Z,100.00
2023-02-18T21:43:30.842Z,100.00
2023-02-18T21:46:14.491Z,100.00
2023-02-18T21:48:59.408Z,100.00
2023-02-18T21:51:44.434Z,100.00
2023-02-18T21:54:10.967Z,100.00
2023-02-18T21:56:37.335Z,100.00
2023-02-18T21:59:03.827Z,100.00
2023-02-18T22:01:30.246Z,100.00
2023-02-18T22:03:56.880Z,100.00
2023-02-18T22:06:23.260Z,100.00
2023-02-18T22:08:49.677Z,100.00
2023-02-18T22:11:16.261Z,100.00
2023-02-18T22:13:43.843Z,100.00
2023-02-18T22:16:10.418Z,100.00
2023-02-18T22:18:36.796Z,100.00
2023-02-18T22:21:08.641Z,100.00
2023-02-18T22:23:35.395Z,100.00
2023-02-18T22:26:07.022Z,100.00
2023-02-18T22:28:34.044Z,100.00
2023-02-18T22:31:00.628Z,100.00
2023-02-18T22:33:27.315Z,100.00
2023-02-18T22:35:53.654Z,100.00
2023-02-18T22:38:20.085Z,100.00
2023-02-18T22:40:48.049Z,100.00
2023-02-18T22:43:15.471Z,100.00
2023-02-18T22:45:41.846Z,100.00
2023-02-18T22:48:08.257Z,100.00
2023-02-18T22:50:34.903Z,100.00
2023-02-18T22:53:01.274Z,100.00
2023-02-18T22:55:27.691Z,100.00
2023-02-18T22:57:54.057Z,100.00
2023-02-18T23:00:24.775Z,100.00
2023-02-18T23:02:52.520Z,100.00
2023-02-18T23:05:19.210Z,100.00
2023-02-18T23:07:54.491Z,100.00
2023-02-18T23:10:20.948Z,100.00
2023-02-18T23:12:47.312Z,100.00
2023-02-18T23:15:14.244Z,100.00
2023-02-18T23:17:40.612Z,100.00
2023-02-18T23:20:07.272Z,100.00
2023-02-18T23:22:33.744Z,100.00
2023-02-18T23:25:01.433Z,100.00
2023-02-18T23:27:28.333Z,100.00
2023-02-18T23:29:56.259Z,100.00
2023-02-18T23:32:22.572Z,100.00
2023-02-18T23:34:51.852Z,100.00
2023-02-18T23:37:38.404Z,100.00
2023-02-18T23:40:05.318Z,100.00
2023-02-18T23:42:31.650Z,99.67
2023-02-18T23:44:58.010Z,99.95
2023-02-18T23:47:24.348Z,99.50
2023-02-18T23:49:50.666Z,99.87
2023-02-18T23:52:17.012Z,99.17
2023-02-18T23:54:43.345Z,99.59
2023-02-18T23:57:09.666Z,99.46
2023-02-18T23:59:35.964Z,99.80
